Time;durP1;ratioP1;P1;durP2;ratioP2;P2;SDS_P1;SDS_P2;PMS_P1;PMS_P2;Temp;Humidity;BMP_temperature;BMP_pressure;BME280_temperature;BME280_humidity;BME280_pressure;Samples;Min_cycle;Max_cycle;Signal;HPM_P1;HPM_P2
2021/04/29 00:01:31;;;;;;;;;37.00;31.50;;;;;15.08;31.90;97946.88;6277090;27;125322;-64
2021/04/29 00:04:34;;;;;;;;;34.00;30.20;;;;;15.06;32.28;97936.28;6264205;27;126251;-64
2021/04/29 00:07:37;;;;;;;;;34.00;31.00;;;;;14.98;32.70;97938.75;6280620;27;124935;-64
2021/04/29 00:10:39;;;;;;;;;32.00;29.60;;;;;14.93;32.83;97944.19;6280671;27;124801;-64
2021/04/29 00:13:41;;;;;;;;;35.00;31.50;;;;;14.86;32.76;97935.50;6262646;27;125201;-64
2021/04/29 00:16:43;;;;;;;;;39.00;32.00;;;;;14.61;33.86;97937.13;6278378;27;126001;-64
2021/04/29 00:19:47;;;;;;;;;34.00;31.00;;;;;14.58;34.14;97945.81;6277616;27;124797;-64
2021/04/29 00:22:49;;;;;;;;;35.00;32.00;;;;;14.42;34.55;97940.63;6281211;27;125091;-64
2021/04/29 00:25:51;;;;;;;;;38.00;32.00;;;;;14.28;34.61;97945.72;6284869;27;126388;-64
2021/04/29 00:28:54;;;;;;;;;37.25;32.25;;;;;14.11;34.63;97937.84;6284378;27;124960;-64
2021/04/29 00:31:56;;;;;;;;;34.40;31.00;;;;;14.14;34.84;97950.03;6266436;27;126512;-64
2021/04/29 00:35:00;;;;;;;;;36.67;31.33;;;;;14.13;34.90;97945.69;6283994;27;126714;-64
2021/04/29 00:38:02;;;;;;;;;33.40;31.00;;;;;14.03;34.61;97935.63;6277639;27;124283;-64
2021/04/29 00:41:04;;;;;;;;;35.00;32.00;;;;;14.12;34.51;97944.09;6275333;27;125594;-64
2021/04/29 00:44:07;;;;;;;;;33.60;32.00;;;;;14.11;34.20;97953.28;6284248;27;127145;-64
2021/04/29 00:47:10;;;;;;;;;36.40;32.00;;;;;13.98;34.91;97929.38;6284734;27;126181;-64
2021/04/29 00:50:13;;;;;;;;;35.00;32.00;;;;;14.07;34.60;97942.19;6282843;27;125109;-64
2021/04/29 00:53:16;;;;;;;;;38.40;32.00;;;;;14.09;34.66;97933.75;6282974;27;124125;-64
2021/04/29 00:56:18;;;;;;;;;38.80;32.00;;;;;14.07;34.80;97944.06;6284367;27;127135;-64
2021/04/29 00:59:21;;;;;;;;;36.20;32.00;;;;;13.97;35.01;97958.41;6286126;27;126304;-64
2021/04/29 01:02:36;;;;;;;;;31.50;30.00;;;;;13.92;35.36;97955.69;6283445;27;125909;-64
2021/04/29 01:05:47;;;;;;;;;33.00;30.00;;;;;13.75;35.21;97931.50;6286530;27;125414;-64
2021/04/29 01:08:57;;;;;;;;;33.25;30.00;;;;;13.89;34.96;97951.59;6284301;27;126218;-64
2021/04/29 01:12:03;;;;;;;;;34.25;31.00;;;;;13.86;35.38;97944.00;6280585;27;125034;-63
2021/04/29 01:15:08;;;;;;;;;38.40;32.40;;;;;13.84;35.32;97940.72;6273740;27;125664;-63
2021/04/29 01:18:12;;;;;;;;;33.75;29.75;;;;;13.77;35.44;97934.75;6284429;27;126234;-64
2021/04/29 01:21:17;;;;;;;;;33.00;30.00;;;;;13.75;35.48;97933.38;6284248;27;126257;-63
2021/04/29 01:24:23;;;;;;;;;32.00;30.00;;;;;13.41;35.80;97897.75;6282034;27;126529;-63
2021/04/29 01:27:28;;;;;;;;;34.00;30.00;;;;;13.67;35.70;97936.63;6272288;27;124096;-64
2021/04/29 01:30:32;;;;;;;;;36.25;32.00;;;;;13.57;36.05;97937.38;6283608;27;125878;-63
2021/04/29 01:33:35;;;;;;;;;34.20;30.40;;;;;13.52;36.11;97929.22;6285582;27;124535;-64
2021/04/29 01:36:40;;;;;;;;;32.80;30.20;;;;;13.34;36.07;97914.25;6284228;27;124663;-64
2021/04/29 01:39:42;;;;;;;;;35.60;30.60;;;;;13.47;35.90;97929.22;6285157;27;126292;-63
2021/04/29 01:42:45;;;;;;;;;37.80;31.40;;;;;13.42;35.89;97930.00;6282879;27;125354;-63
2021/04/29 01:45:48;;;;;;;;;37.40;31.60;;;;;13.43;35.54;97933.53;6278760;27;125413;-63
2021/04/29 01:48:51;;;;;;;;;33.00;30.00;;;;;13.32;35.42;97908.28;6284917;27;124895;-65
2021/04/29 01:51:54;;;;;;;;;31.75;29.00;;;;;13.40;35.77;97932.13;6281995;27;125050;-64
2021/04/29 01:54:56;;;;;;;;;35.80;31.60;;;;;13.34;36.33;97933.19;6276565;27;123931;-65
2021/04/29 01:57:59;;;;;;;;;33.00;30.75;;;;;13.27;36.26;97915.56;6280233;27;125105;-65
2021/04/29 02:01:02;;;;;;;;;37.00;32.00;;;;;13.33;35.99;97923.47;6266751;27;124408;-65
2021/04/29 02:04:05;;;;;;;;;34.00;31.50;;;;;13.39;35.87;97925.09;6283263;27;126448;-65
2021/04/29 02:07:07;;;;;;;;;38.60;32.40;;;;;13.32;36.26;97927.22;6277436;27;124831;-64
2021/04/29 02:10:10;;;;;;;;;34.00;30.00;;;;;13.32;36.50;97926.41;6283275;27;127480;-63
2021/04/29 02:13:15;;;;;;;;;35.50;32.00;;;;;13.25;36.52;97920.41;6275381;27;126331;-64
2021/04/29 02:16:21;;;;;;;;;37.60;32.60;;;;;13.21;36.38;97924.72;6258590;27;126610;-64
2021/04/29 02:19:27;;;;;;;;;35.60;32.00;;;;;13.16;36.90;97914.69;6265058;27;126153;-64
2021/04/29 02:22:31;;;;;;;;;33.00;30.80;;;;;13.21;36.38;97909.31;6265535;27;125944;-64
2021/04/29 02:25:33;;;;;;;;;35.80;31.80;;;;;13.21;36.50;97914.72;6272818;27;127241;-64
2021/04/29 02:28:37;;;;;;;;;35.50;30.00;;;;;13.20;36.76;97912.25;6284075;27;126851;-64
2021/04/29 02:31:39;;;;;;;;;33.25;29.25;;;;;13.14;36.81;97916.84;6283736;27;124630;-64
2021/04/29 02:34:47;;;;;;;;;36.00;31.20;;;;;13.11;37.20;97905.69;6284149;27;125673;-64
2021/04/29 02:37:51;;;;;;;;;34.60;30.60;;;;;13.02;37.18;97908.06;6284209;27;125304;-64
2021/04/29 02:40:53;;;;;;;;;34.20;31.20;;;;;13.00;37.39;97907.50;6282200;27;126177;-64
2021/04/29 02:44:03;;;;;;;;;37.00;32.50;;;;;12.99;37.19;97909.44;6282548;27;126648;-64
2021/04/29 02:47:06;;;;;;;;;34.75;32.00;;;;;12.97;37.34;97903.44;6281224;27;124704;-64
2021/04/29 02:50:10;;;;;;;;;39.60;32.40;;;;;12.95;37.75;97910.22;6270851;27;126132;-64
2021/04/29 02:53:13;;;;;;;;;37.00;32.00;;;;;12.93;37.35;97915.06;6274530;27;124749;-64
2021/04/29 02:56:15;;;;;;;;;31.20;30.00;;;;;12.91;37.60;97912.59;6283629;27;126245;-64
2021/04/29 02:59:18;;;;;;;;;35.60;32.00;;;;;12.88;37.44;97912.31;6282955;27;126112;-64
2021/04/29 03:02:20;;;;;;;;;36.00;30.25;;;;;12.84;37.86;97912.03;6276034;27;123709;-64
2021/04/29 03:05:23;;;;;;;;;34.00;30.40;;;;;12.90;37.81;97919.06;6274402;27;126894;-64
2021/04/29 03:08:25;;;;;;;;;36.00;32.00;;;;;12.89;37.88;97924.78;6283025;27;126464;-64
2021/04/29 03:11:27;;;;;;;;;33.00;30.00;;;;;12.92;37.92;97930.47;6282743;27;126394;-64
2021/04/29 03:14:30;;;;;;;;;35.25;31.75;;;;;12.96;37.99;97926.16;6283429;27;127415;-64
2021/04/29 03:17:32;;;;;;;;;39.00;32.20;;;;;13.05;38.09;97931.09;6283234;27;126215;-64
2021/04/29 03:20:35;;;;;;;;;33.00;31.60;;;;;13.06;38.11;97930.81;6281127;27;124454;-64
2021/04/29 03:23:48;;;;;;;;;28.00;28.00;;;;;13.03;37.95;97934.06;6280279;27;124185;-64
2021/04/29 03:26:50;;;;;;;;;31.60;28.60;;;;;12.92;37.99;97930.47;6282126;27;126436;-64
2021/04/29 03:29:53;;;;;;;;;34.00;29.00;;;;;12.92;38.39;97938.59;6282379;27;125368;-64
2021/04/29 03:32:55;;;;;;;;;33.60;29.60;;;;;12.81;38.62;97941.47;6280486;27;123195;-64
2021/04/29 03:35:58;;;;;;;;;34.00;30.00;;;;;12.77;38.87;97932.25;6281870;27;125300;-64
2021/04/29 03:39:00;;;;;;;;;29.20;25.80;;;;;12.77;38.86;97933.06;6280488;27;127245;-64
2021/04/29 03:42:02;;;;;;;;;26.75;25.00;;;;;12.75;39.22;97934.41;6280159;27;124156;-65
2021/04/29 03:45:07;;;;;;;;;30.75;26.00;;;;;12.74;39.22;97921.94;6281411;27;126101;-64
2021/04/29 03:48:10;;;;;;;;;32.00;29.00;;;;;12.71;39.11;97925.16;6279179;27;124903;-65
2021/04/29 03:51:12;;;;;;;;;29.50;27.00;;;;;12.82;39.17;97927.69;6279556;27;123282;-64
2021/04/29 03:54:15;;;;;;;;;29.25;28.00;;;;;12.87;39.33;97927.72;6280510;27;126581;-64
2021/04/29 03:57:17;;;;;;;;;28.00;25.80;;;;;12.93;39.36;97923.97;6266616;27;127029;-64
2021/04/29 04:00:21;;;;;;;;;29.00;27.00;;;;;13.03;39.10;97923.25;6277884;27;125158;-64
2021/04/29 04:03:23;;;;;;;;;30.20;29.00;;;;;13.10;39.19;97912.16;6283684;27;126049;-64
2021/04/29 04:06:25;;;;;;;;;29.00;27.00;;;;;13.22;39.42;97918.25;6286219;27;126656;-64
2021/04/29 04:09:34;;;;;;;;;31.00;29.00;;;;;13.29;39.28;97918.84;6284343;27;125717;-64
2021/04/29 04:12:37;;;;;;;;;33.40;29.80;;;;;13.20;39.59;97887.91;6276674;27;126413;-64
2021/04/29 04:15:40;;;;;;;;;33.00;30.00;;;;;13.49;39.57;97927.03;6270373;27;126511;-64
2021/04/29 04:18:43;;;;;;;;;34.50;30.00;;;;;13.66;39.56;97929.56;6278433;27;125978;-64
2021/04/29 04:21:46;;;;;;;;;32.75;30.00;;;;;13.79;39.17;97929.88;6283928;27;126491;-64
2021/04/29 04:24:48;;;;;;;;;35.60;31.00;;;;;13.92;39.23;97928.59;6273747;27;126554;-64
2021/04/29 04:27:50;;;;;;;;;38.40;32.40;;;;;14.01;38.58;97926.16;6279177;27;125337;-64
2021/04/29 04:30:53;;;;;;;;;42.20;32.60;;;;;14.09;38.39;97929.16;6267401;27;124356;-64
2021/04/29 04:33:55;;;;;;;;;41.00;35.00;;;;;14.12;37.92;97927.81;6275303;27;126057;-64
2021/04/29 04:36:57;;;;;;;;;38.00;33.00;;;;;14.19;38.19;97926.47;6280964;27;126272;-64
2021/04/29 04:40:00;;;;;;;;;39.40;33.20;;;;;14.32;37.90;97930.53;6283449;27;125010;-64
2021/04/29 04:43:02;;;;;;;;;43.60;35.00;;;;;14.44;37.37;97925.72;6272020;27;124509;-64
2021/04/29 04:46:06;;;;;;;;;46.50;37.00;;;;;14.58;37.30;97923.28;6278759;27;124072;-64
2021/04/29 04:49:08;;;;;;;;;45.00;38.00;;;;;14.60;36.67;97926.56;6279839;27;126392;-64
2021/04/29 04:52:10;;;;;;;;;46.40;38.40;;;;;14.71;36.98;97918.13;6287405;27;125830;-64
2021/04/29 04:55:13;;;;;;;;;50.20;40.60;;;;;14.94;36.29;97913.25;6286659;27;124153;-64
2021/04/29 04:58:16;;;;;;;;;50.00;40.80;;;;;14.89;36.20;97869.84;6288396;27;126234;-64
2021/04/29 05:01:19;;;;;;;;;51.33;41.67;;;;;15.13;35.54;97885.25;6287557;27;126348;-64
2021/04/29 05:04:25;;;;;;;;;47.33;40.00;;;;;15.46;35.54;97907.44;6287831;27;125287;-64
2021/04/29 05:07:27;;;;;;;;;47.00;40.00;;;;;15.66;35.80;97904.66;6271296;27;124861;-64
2021/04/29 05:10:30;;;;;;;;;49.00;40.00;;;;;15.81;35.85;97914.66;6279106;27;126353;-64
2021/04/29 05:13:32;;;;;;;;;47.40;38.00;;;;;16.04;35.85;97911.25;6283261;27;126105;-64
2021/04/29 05:16:35;;;;;;;;;47.00;39.20;;;;;16.21;35.62;97900.84;6288160;27;125239;-64
2021/04/29 05:19:38;;;;;;;;;46.00;38.40;;;;;16.36;35.91;97903.47;6288080;27;125144;-64
2021/04/29 05:22:40;;;;;;;;;44.00;37.80;;;;;16.55;34.71;97902.78;6276974;27;127352;-64
2021/04/29 05:25:42;;;;;;;;;47.00;37.00;;;;;16.73;34.72;97899.41;6262490;27;125186;-64
2021/04/29 05:28:44;;;;;;;;;45.00;38.00;;;;;16.96;34.47;97901.34;6263035;27;126203;-64
2021/04/29 05:31:51;;;;;;;;;44.50;36.00;;;;;17.09;34.55;97894.44;6275141;27;126130;-64
2021/04/29 05:34:53;;;;;;;;;47.00;40.00;;;;;17.31;34.44;97897.47;6267415;27;126241;-64
2021/04/29 05:37:55;;;;;;;;;45.40;37.40;;;;;17.59;33.90;97895.84;6273174;27;125325;-64
2021/04/29 05:40:58;;;;;;;;;40.20;34.00;;;;;17.73;33.48;97897.56;6273041;27;126927;-64
2021/04/29 05:44:00;;;;;;;;;44.60;36.00;;;;;17.91;32.84;97901.41;6271612;27;124677;-64
2021/04/29 05:47:04;;;;;;;;;40.00;34.60;;;;;18.09;33.22;97902.53;6272485;27;126045;-64
2021/04/29 05:50:09;;;;;;;;;45.40;37.40;;;;;18.24;33.40;97905.03;6269605;27;125956;-64
2021/04/29 05:53:11;;;;;;;;;44.00;36.60;;;;;18.39;33.00;97904.81;6267338;27;125020;-64
2021/04/29 05:56:15;;;;;;;;;40.60;34.00;;;;;18.44;32.30;97903.94;6256421;27;125730;-64
2021/04/29 05:59:17;;;;;;;;;43.40;35.00;;;;;18.63;32.54;97902.00;6276433;27;127798;-64
2021/04/29 06:02:21;;;;;;;;;44.40;35.00;;;;;18.79;32.28;97894.38;6271582;27;125141;-64
2021/04/29 06:05:23;;;;;;;;;40.80;35.40;;;;;18.95;32.47;97887.56;6270947;27;126709;-64
2021/04/29 06:08:26;;;;;;;;;44.00;36.00;;;;;19.15;31.47;97889.13;6274003;27;127267;-64
2021/04/29 06:11:28;;;;;;;;;41.50;36.00;;;;;19.17;30.68;97865.84;6262135;27;125279;-64
2021/04/29 06:14:30;;;;;;;;;44.00;36.00;;;;;19.51;30.97;97881.06;6271632;27;127467;-64
2021/04/29 06:17:33;;;;;;;;;43.00;35.00;;;;;19.68;30.45;97875.81;6273380;27;126374;-64
2021/04/29 06:20:35;;;;;;;;;36.60;32.00;;;;;19.93;30.06;97867.06;6271455;27;126118;-65
2021/04/29 06:23:38;;;;;;;;;39.00;34.00;;;;;20.00;29.88;97853.78;6270916;27;126868;-64
2021/04/29 06:26:41;;;;;;;;;46.20;36.80;;;;;20.24;30.50;97864.44;6273162;27;126333;-64
2021/04/29 06:29:43;;;;;;;;;48.00;39.00;;;;;20.33;30.19;97865.34;6276996;27;127036;-64
2021/04/29 06:32:47;;;;;;;;;45.80;38.00;;;;;20.45;29.87;97865.63;6274498;27;126214;-64
2021/04/29 06:35:50;;;;;;;;;46.40;38.60;;;;;20.58;30.11;97864.75;6253677;27;125946;-64
2021/04/29 06:38:52;;;;;;;;;49.00;41.00;;;;;20.49;30.12;97846.63;6273122;27;127052;-64
2021/04/29 06:41:54;;;;;;;;;46.20;38.00;;;;;20.81;29.63;97865.56;6272210;27;126541;-64
2021/04/29 06:44:56;;;;;;;;;47.00;38.00;;;;;20.95;29.38;97862.75;6271852;27;126550;-64
2021/04/29 06:47:59;;;;;;;;;46.80;38.80;;;;;21.06;29.84;97866.84;6267116;27;128081;-64
2021/04/29 06:51:01;;;;;;;;;47.00;38.00;;;;;21.22;29.54;97862.59;6270603;27;124286;-64
2021/04/29 06:54:04;;;;;;;;;45.00;37.00;;;;;21.40;28.44;97864.28;6269751;27;125112;-64
2021/04/29 06:57:06;;;;;;;;;42.00;36.00;;;;;21.53;28.70;97865.28;6253689;27;126263;-64
2021/04/29 07:00:10;;;;;;;;;45.00;36.00;;;;;21.68;28.61;97867.59;6279075;27;127399;-64
2021/04/29 07:03:13;;;;;;;;;44.60;36.00;;;;;21.74;28.20;97871.00;6269944;27;125308;-64
2021/04/29 07:06:16;;;;;;;;;43.00;35.40;;;;;21.85;28.39;97875.88;6271096;27;126217;-64
2021/04/29 07:09:18;;;;;;;;;45.00;35.00;;;;;22.07;28.39;97871.44;6267376;27;126256;-63
2021/04/29 07:12:20;;;;;;;;;45.80;36.60;;;;;22.30;28.23;97870.97;6268353;27;125100;-65
2021/04/29 07:15:22;;;;;;;;;44.40;36.00;;;;;22.46;28.23;97869.34;6271377;27;126054;-63
2021/04/29 07:18:25;;;;;;;;;39.00;34.00;;;;;22.69;28.01;97872.72;6271652;27;126209;-64
2021/04/29 07:21:28;;;;;;;;;39.50;33.50;;;;;22.92;27.38;97869.81;6266862;27;124242;-63
2021/04/29 07:24:30;;;;;;;;;37.20;32.20;;;;;23.14;27.32;97870.41;6263444;27;127035;-62
2021/04/29 07:27:32;;;;;;;;;42.20;34.80;;;;;23.36;27.82;97865.81;6271445;27;126256;-64
2021/04/29 07:30:35;;;;;;;;;37.40;32.00;;;;;23.59;26.71;97862.50;6275428;27;125154;-64
2021/04/29 07:33:39;;;;;;;;;38.60;33.00;;;;;23.76;26.48;97858.84;6272607;27;127926;-64
2021/04/29 07:36:42;;;;;;;;;42.00;35.60;;;;;23.72;27.43;97844.94;6275897;27;124074;-64
2021/04/29 07:39:59;;;;;;;;;46.60;38.00;;;;;23.92;27.41;97853.56;6276065;27;124613;-64
2021/04/29 07:43:01;;;;;;;;;47.00;38.00;;;;;23.88;27.31;97847.13;6274801;27;127334;-64
2021/04/29 07:46:04;;;;;;;;;50.80;40.00;;;;;23.83;27.30;97853.63;6274548;27;126272;-64
2021/04/29 07:49:07;;;;;;;;;45.00;36.20;;;;;23.86;27.13;97849.38;6272201;27;126480;-64
2021/04/29 07:52:09;;;;;;;;;46.60;37.80;;;;;23.88;27.26;97856.19;6271594;27;126423;-64
2021/04/29 07:55:13;;;;;;;;;45.00;37.80;;;;;23.95;27.22;97844.63;6276734;27;125474;-64
2021/04/29 07:58:15;;;;;;;;;43.50;36.00;;;;;23.96;26.93;97852.56;6273739;27;123970;-64
2021/04/29 08:01:29;;;;;;;;;41.50;36.00;;;;;24.03;27.14;97852.84;6276533;27;124684;-64
2021/04/29 08:04:33;;;;;;;;;46.50;37.75;;;;;24.01;27.08;97852.38;6272614;27;128135;-64
2021/04/29 08:07:35;;;;;;;;;41.00;33.40;;;;;24.11;26.51;97853.91;6280255;27;126122;-63
2021/04/29 08:10:41;;;;;;;;;39.00;34.00;;;;;24.21;26.85;97848.06;6272433;27;127130;-65
2021/04/29 08:13:44;;;;;;;;;41.40;36.00;;;;;24.28;26.36;97836.50;6273188;27;126233;-65
2021/04/29 08:16:46;;;;;;;;;40.50;35.00;;;;;24.39;26.43;97838.50;6274052;27;126478;-65
2021/04/29 08:19:50;;;;;;;;;40.80;33.00;;;;;24.57;26.77;97839.97;6271773;27;126390;-64
2021/04/29 08:22:52;;;;;;;;;36.40;33.00;;;;;24.70;26.47;97838.06;6274372;27;124562;-63
2021/04/29 08:25:54;;;;;;;;;37.00;31.20;;;;;24.88;25.82;97834.00;6286172;27;126141;-63
2021/04/29 08:28:56;;;;;;;;;36.00;32.00;;;;;25.02;26.18;97823.47;6286874;27;128248;-63
2021/04/29 08:32:00;;;;;;;;;34.50;30.50;;;;;25.15;26.19;97818.00;6286331;27;125119;-63
2021/04/29 08:35:04;;;;;;;;;36.40;32.00;;;;;25.48;24.85;97821.47;6278781;27;124916;-64
2021/04/29 08:38:06;;;;;;;;;23.20;19.80;;;;;25.54;22.17;97827.56;6311874;27;126536;-63
2021/04/29 08:41:08;;;;;;;;;17.00;15.40;;;;;25.21;21.23;97817.44;6280360;27;125094;-63
2021/04/29 08:44:11;;;;;;;;;12.00;12.00;;;;;25.80;20.73;97817.00;6260449;27;125158;-63
2021/04/29 08:47:13;;;;;;;;;10.00;9.00;;;;;26.19;20.46;97823.72;6259705;27;123994;-64
2021/04/29 08:50:16;;;;;;;;;9.00;9.00;;;;;25.78;19.89;97797.22;6260604;27;126297;-64
2021/04/29 08:53:19;;;;;;;;;9.00;9.00;;;;;25.80;20.51;97817.00;6260019;27;126660;-64
2021/04/29 08:56:25;;;;;;;;;11.00;10.00;;;;;25.56;20.64;97808.75;6261786;27;124880;-63
2021/04/29 08:59:27;;;;;;;;;10.00;9.00;;;;;25.10;21.91;97808.00;6277699;27;127471;-65
2021/04/29 09:02:34;;;;;;;;;9.00;8.50;;;;;25.37;22.58;97796.28;6278534;27;126556;-63
2021/04/29 09:05:38;;;;;;;;;9.80;9.00;;;;;25.69;22.05;97802.88;6286500;27;127201;-63
2021/04/29 09:08:42;;;;;;;;;9.00;8.00;;;;;25.73;22.56;97794.69;6283872;27;124936;-64
2021/04/29 09:11:48;;;;;;;;;8.33;8.00;;;;;25.45;23.67;97800.91;6286306;27;127512;-65
2021/04/29 09:15:20;;;;;;;;;10.00;9.00;;;;;25.12;24.19;97791.88;6285132;27;123647;-64
2021/04/29 09:18:30;;;;;;;;;9.00;8.60;;;;;24.84;24.42;97766.09;6279227;27;127100;-65
2021/04/29 09:21:33;;;;;;;;;11.00;9.75;;;;;24.87;24.73;97787.50;6272996;27;124785;-64
2021/04/29 09:24:38;;;;;;;;;9.00;9.00;;;;;24.93;24.20;97769.56;6270310;27;125065;-64
2021/04/29 09:27:40;;;;;;;;;9.40;9.00;;;;;25.35;24.77;97778.47;6279867;27;127347;-64
2021/04/29 09:30:43;;;;;;;;;11.20;8.80;;;;;25.36;24.89;97764.31;6271684;27;126501;-64
2021/04/29 09:33:50;;;;;;;;;9.00;9.00;;;;;25.84;24.78;97788.34;6272582;27;125971;-65
2021/04/29 09:36:53;;;;;;;;;9.00;9.00;;;;;26.16;24.69;97775.50;6270845;27;126486;-65
2021/04/29 09:39:55;;;;;;;;;9.00;8.20;;;;;26.18;24.68;97764.09;6270642;27;125291;-64
2021/04/29 09:42:58;;;;;;;;;9.00;9.00;;;;;26.50;24.51;97762.25;6270945;27;126952;-64
2021/04/29 09:46:03;;;;;;;;;8.75;8.00;;;;;26.81;25.15;97758.75;6272513;27;126464;-64
2021/04/29 09:49:19;;;;;;;;;10.00;9.00;;;;;26.88;24.38;97756.22;6272692;27;126095;-64
2021/04/29 09:56:59;;;;;;;;;10.20;9.00;;;;;26.37;24.55;97725.59;6276864;27;128087;-63
2021/04/29 10:00:02;;;;;;;;;10.00;9.00;;;;;26.67;24.27;97739.84;6281040;27;124045;-63
2021/04/29 10:03:05;;;;;;;;;12.00;10.00;;;;;26.71;25.29;97733.25;6268344;27;125749;-64
2021/04/29 10:06:11;;;;;;;;;9.75;9.00;;;;;26.63;25.33;97745.25;6272029;27;125646;-64
2021/04/29 10:09:14;;;;;;;;;8.20;8.00;;;;;26.53;25.86;97726.44;6273580;27;125987;-64
2021/04/29 10:12:19;;;;;;;;;7.00;6.40;;;;;26.62;25.79;97729.84;6271996;27;125292;-64
2021/04/29 10:15:22;;;;;;;;;6.50;6.50;;;;;26.47;26.36;97725.09;6270336;27;125038;-65
2021/04/29 10:18:25;;;;;;;;;9.80;8.80;;;;;26.46;26.04;97725.44;6273427;27;126172;-63
2021/04/29 10:21:27;;;;;;;;;7.00;7.00;;;;;26.25;26.39;97728.41;6272940;27;127088;-64
2021/04/29 10:24:30;;;;;;;;;7.20;7.00;;;;;26.23;26.37;97727.97;6263641;27;124098;-64
2021/04/29 10:27:33;;;;;;;;;8.75;7.25;;;;;26.52;26.47;97716.53;6270658;27;124079;-63
2021/04/29 10:30:37;;;;;;;;;8.00;7.00;;;;;26.66;26.29;97725.19;6279569;27;126484;-64
2021/04/29 10:33:47;;;;;;;;;5.00;5.00;;;;;26.49;26.73;97722.75;6264147;27;127228;-64
2021/04/29 10:36:51;;;;;;;;;5.00;5.00;;;;;26.27;26.93;97726.91;6273106;27;123805;-63
2021/04/29 10:39:55;;;;;;;;;6.00;5.00;;;;;26.06;27.54;97720.75;6286031;27;124383;-63
2021/04/29 10:42:58;;;;;;;;;4.00;4.00;;;;;25.89;27.58;97723.81;6285785;27;126469;-63
2021/04/29 10:46:05;;;;;;;;;4.00;4.00;;;;;25.87;27.67;97709.53;6286033;27;124744;-63
2021/04/29 10:49:08;;;;;;;;;5.00;4.00;;;;;25.92;28.02;97711.25;6285254;27;124810;-63
2021/04/29 10:52:11;;;;;;;;;5.00;4.50;;;;;26.00;27.58;97705.56;6286593;27;124845;-64
2021/04/29 10:55:23;;;;;;;;;6.00;4.00;;;;;26.19;27.41;97716.75;6283278;27;125044;-63
2021/04/29 10:58:26;;;;;;;;;5.00;5.00;;;;;26.17;27.24;97718.28;6271371;27;126012;-64
2021/04/29 11:01:39;;;;;;;;;4.60;3.60;;;;;26.13;26.98;97726.47;6270445;27;126468;-64
2021/04/29 11:04:42;;;;;;;;;5.60;5.00;;;;;26.06;26.74;97715.22;6271325;27;127181;-64
2021/04/29 11:07:46;;;;;;;;;6.60;5.00;;;;;25.83;26.79;97711.38;6270788;27;126530;-64
2021/04/29 11:10:48;;;;;;;;;7.00;6.00;;;;;25.83;27.10;97719.66;6272309;27;127403;-64
2021/04/29 11:13:58;;;;;;;;;5.00;5.00;;;;;26.00;27.24;97721.34;6272613;27;126873;-64
2021/04/29 11:17:02;;;;;;;;;5.00;4.00;;;;;26.11;27.14;97723.25;6270111;27;124965;-66
2021/04/29 11:20:05;;;;;;;;;6.00;6.00;;;;;26.18;26.83;97715.19;6272312;27;126704;-64
2021/04/29 11:23:07;;;;;;;;;5.00;5.00;;;;;26.24;26.55;97733.13;6268757;27;125079;-64
2021/04/29 11:26:13;;;;;;;;;5.00;5.00;;;;;26.34;26.77;97725.50;6280631;27;125114;-64
2021/04/29 11:29:16;;;;;;;;;5.20;5.00;;;;;26.71;26.50;97716.66;6278906;27;124734;-64
2021/04/29 11:32:19;;;;;;;;;5.00;5.00;;;;;27.06;26.13;97727.84;6272000;27;127037;-64
2021/04/29 11:35:24;;;;;;;;;7.00;6.60;;;;;27.08;25.87;97735.75;6275653;27;127554;-64
2021/04/29 11:38:27;;;;;;;;;6.00;6.00;;;;;27.09;25.86;97740.16;6273244;27;125011;-64
2021/04/29 11:41:30;;;;;;;;;6.00;5.00;;;;;26.86;26.43;97739.97;6269315;27;127209;-64
2021/04/29 11:44:33;;;;;;;;;5.00;5.00;;;;;26.73;26.51;97736.44;6252743;27;123939;-64
2021/04/29 11:47:36;;;;;;;;;5.00;4.50;;;;;26.72;26.70;97742.34;6279374;27;125107;-64
2021/04/29 11:50:42;;;;;;;;;6.00;5.00;;;;;26.64;26.98;97746.06;6275615;27;125181;-64
2021/04/29 11:53:44;;;;;;;;;5.00;5.00;;;;;26.53;26.88;97754.09;6269345;27;126456;-64
2021/04/29 11:56:48;;;;;;;;;8.00;8.00;;;;;26.36;27.16;97723.97;6280558;27;126945;-64
2021/04/29 11:59:52;;;;;;;;;8.80;7.00;;;;;26.40;27.50;97746.97;6265437;27;125873;-64
2021/04/29 12:02:57;;;;;;;;;8.00;7.50;;;;;26.37;28.04;97750.47;6271809;27;124132;-64
2021/04/29 12:05:59;;;;;;;;;9.00;7.40;;;;;26.48;27.87;97746.03;6278961;27;124952;-63
2021/04/29 12:09:10;;;;;;;;;7.25;7.00;;;;;26.63;27.90;97742.47;6273164;27;127463;-63
2021/04/29 12:12:30;;;;;;;;;9.75;8.00;;;;;26.72;27.56;97750.63;6276865;27;126998;-64
2021/04/29 12:15:33;;;;;;;;;8.00;7.00;;;;;27.00;27.65;97743.09;6272642;27;124829;-64
2021/04/29 12:18:40;;;;;;;;;8.00;7.00;;;;;27.25;26.68;97745.69;6270125;27;126371;-64
2021/04/29 12:21:44;;;;;;;;;8.00;7.00;;;;;27.70;26.16;97743.22;6274508;27;124671;-63
2021/04/29 12:24:46;;;;;;;;;8.00;8.00;;;;;27.88;25.87;97758.25;6264753;27;122727;-64
2021/04/29 12:27:49;;;;;;;;;9.00;9.00;;;;;28.25;25.60;97742.03;6258207;27;125506;-64
2021/04/29 12:30:52;;;;;;;;;7.40;7.40;;;;;28.13;25.97;97749.72;6271038;27;125318;-64
2021/04/29 12:34:00;;;;;;;;;7.50;7.50;;;;;27.99;26.15;97744.66;6272741;27;126437;-64
2021/04/29 12:37:06;;;;;;;;;9.00;8.40;;;;;27.90;26.16;97746.84;6264770;27;126674;-64
2021/04/29 12:40:10;;;;;;;;;10.00;8.00;;;;;27.65;25.70;97746.28;6279241;27;126900;-64
2021/04/29 12:43:15;;;;;;;;;9.00;7.00;;;;;27.40;26.06;97744.84;6272631;27;124172;-64
2021/04/29 12:46:29;;;;;;;;;8.50;8.00;;;;;27.46;25.79;97730.41;6273854;27;126596;-64
2021/04/29 12:49:31;;;;;;;;;8.40;7.40;;;;;27.79;25.80;97740.25;6276068;27;125898;-64
2021/04/29 12:52:46;;;;;;;;;8.40;8.40;;;;;27.99;25.84;97736.34;6287428;27;126567;-64
2021/04/29 12:55:48;;;;;;;;;7.00;6.60;;;;;28.39;24.93;97734.00;6277284;27;124792;-64
2021/04/29 12:58:50;;;;;;;;;11.00;8.00;;;;;28.75;25.38;97735.53;6262275;27;124179;-64
2021/04/29 13:02:04;;;;;;;;;9.00;8.00;;;;;28.83;23.98;97733.69;6271987;27;125229;-64
2021/04/29 13:05:09;;;;;;;;;8.00;7.40;;;;;28.64;23.80;97742.00;6264483;27;125412;-64
2021/04/29 13:08:11;;;;;;;;;6.00;6.00;;;;;28.88;24.39;97738.13;6282039;27;127317;-64
2021/04/29 13:11:13;;;;;;;;;10.00;9.25;;;;;28.77;24.11;97744.28;6272566;27;125216;-64
2021/04/29 13:14:17;;;;;;;;;7.60;7.00;;;;;28.62;24.40;97736.84;6272570;27;126660;-64
2021/04/29 13:17:21;;;;;;;;;7.00;7.00;;;;;28.47;23.80;97734.97;6272470;27;122798;-64
2021/04/29 13:20:24;;;;;;;;;9.25;8.25;;;;;28.46;23.93;97702.84;6281507;27;124815;-64
2021/04/29 13:23:27;;;;;;;;;8.00;6.80;;;;;28.66;24.08;97720.25;6282118;27;126274;-64
2021/04/29 13:26:38;;;;;;;;;8.00;8.00;;;;;28.66;23.55;97734.94;6270434;27;126338;-64
2021/04/29 13:29:40;;;;;;;;;8.80;7.00;;;;;28.70;23.59;97724.69;6274587;27;126564;-64
2021/04/29 13:32:43;;;;;;;;;8.80;6.80;;;;;28.55;23.92;97722.81;6272152;27;127343;-64
2021/04/29 13:35:46;;;;;;;;;8.20;7.20;;;;;28.60;23.40;97725.31;6260768;27;125690;-64
2021/04/29 13:38:48;;;;;;;;;9.00;8.00;;;;;28.72;24.05;97713.28;6275221;27;125108;-64
2021/04/29 13:41:52;;;;;;;;;7.00;7.00;;;;;28.81;24.41;97713.81;6244544;27;124045;-64
2021/04/29 13:44:55;;;;;;;;;9.40;9.40;;;;;28.78;23.63;97717.34;6260502;27;126067;-64
2021/04/29 13:47:58;;;;;;;;;9.00;8.00;;;;;28.69;23.27;97708.41;6261625;27;124279;-64
2021/04/29 13:51:26;;;;;;;;;9.00;8.00;;;;;28.60;23.82;97703.13;6276790;27;124383;-64
2021/04/29 13:54:28;;;;;;;;;15.00;12.00;;;;;28.70;23.72;97702.50;6276329;27;127049;-64
2021/04/29 13:57:30;;;;;;;;;11.00;9.00;;;;;28.72;23.85;97700.22;6281546;27;125197;-64
2021/04/29 14:00:35;;;;;;;;;9.20;9.00;;;;;28.62;24.16;97675.84;6271097;27;124050;-64
2021/04/29 14:03:39;;;;;;;;;11.00;9.00;;;;;28.80;23.55;97701.13;6270950;27;126120;-64
2021/04/29 14:06:43;;;;;;;;;11.00;9.40;;;;;28.67;23.77;97699.69;6268958;27;124312;-63